createdAt,value
2019-04-30T05:42:49.791Z,1021.9
2019-04-30T05:48:22.777Z,1022
2019-04-30T06:21:43.053Z,1021.9
2019-04-30T06:27:15.585Z,1021.9
2019-04-30T06:38:21.790Z,1022
2019-04-30T06:43:54.339Z,1021.9
2019-04-30T06:49:28.746Z,1021.9
2019-04-30T06:54:59.729Z,1021.8
2019-04-30T07:00:33.530Z,1021.8
2019-04-30T07:06:05.816Z,1021.6
2019-04-30T07:11:39.163Z,1021.5
2019-04-30T07:17:10.817Z,1021.6
2019-04-30T07:22:49.582Z,1021.6
2019-04-30T07:28:16.517Z,1021.2
2019-04-30T07:39:29.158Z,1020.6
2019-04-30T07:45:00.401Z,1020.4
2019-04-30T07:50:32.248Z,1020.2
2019-04-30T07:56:21.905Z,1020.2
2019-04-30T08:02:00.179Z,1020.2
2019-04-30T08:07:15.390Z,1020.3
2019-04-30T08:12:51.006Z,1020.1
2019-04-30T08:18:24.944Z,1020.2
2019-04-30T08:24:01.058Z,1020.4
2019-04-30T08:29:34.092Z,1020.4
2019-04-30T08:35:09.797Z,1020.3
2019-04-30T08:40:53.998Z,1020
2019-04-30T08:46:18.983Z,1019.9
2019-04-30T09:19:52.498Z,1019.7
2019-04-30T09:25:28.657Z,1020
2019-04-30T09:31:02.093Z,1020.1
2019-04-30T09:36:36.631Z,1020.1
2019-04-30T09:42:11.374Z,1020.1
2019-04-30T09:47:46.292Z,1020.1
2019-04-30T09:53:20.539Z,1020
2019-04-30T09:58:54.674Z,1020
2019-04-30T10:04:30.123Z,1019.9
2019-04-30T10:10:03.509Z,1019.9
2019-04-30T10:15:38.143Z,1019.8
2019-04-30T10:21:12.655Z,1019.8
2019-04-30T10:26:47.372Z,1019.6
2019-04-30T10:32:22.006Z,1019.6
2019-04-30T10:37:56.618Z,1019.5
2019-04-30T10:43:31.980Z,1019.6
2019-04-30T10:49:05.950Z,1019.7
2019-04-30T10:54:40.454Z,1019.8
2019-04-30T11:00:15.009Z,1019.6
2019-04-30T11:11:25.210Z,1019.7
2019-04-30T11:17:00.205Z,1019.8
2019-04-30T11:22:34.367Z,1019.7
2019-04-30T11:33:45.086Z,1019.5
2019-04-30T11:39:20.147Z,1019.4
2019-04-30T11:44:55.279Z,1019.2
2019-04-30T11:50:30.528Z,1019
2019-04-30T11:56:05.615Z,1019.1
2019-04-30T12:01:40.757Z,1019
2019-04-30T12:07:16.119Z,1018.9
2019-04-30T12:12:51.468Z,1018.9
2019-04-30T12:18:26.716Z,1018.8
2019-04-30T12:24:02.069Z,1018.6
2019-04-30T12:29:39.545Z,1018.8
2019-04-30T12:35:12.895Z,1018.6
2019-04-30T12:40:48.251Z,1018.9
2019-04-30T12:46:23.340Z,1019
2019-04-30T12:51:58.772Z,1019.1
2019-04-30T12:57:33.035Z,1019.1
2019-04-30T13:03:07.732Z,1019.1
2019-04-30T13:08:42.770Z,1019.2
2019-04-30T13:14:19.313Z,1019.1
2019-04-30T13:19:51.482Z,1019.1
2019-04-30T13:25:30.797Z,1019.1
2019-04-30T13:31:00.725Z,1019.1
2019-04-30T13:36:35.363Z,1019
2019-04-30T13:42:17.376Z,1019
2019-04-30T13:47:44.594Z,1019.1
2019-04-30T13:53:19.201Z,1018.9
2019-04-30T13:58:53.841Z,1018.8
2019-04-30T14:04:28.586Z,1018.7
2019-04-30T14:10:03.557Z,1018.1
2019-04-30T14:15:39.008Z,1018.3
2019-04-30T14:21:14.446Z,1018.3
2019-04-30T14:26:49.711Z,1018.6
2019-04-30T14:32:24.804Z,1018.5
2019-04-30T14:37:59.966Z,1018.6
2019-04-30T14:43:35.143Z,1018.1
2019-04-30T14:49:12.755Z,1018.1
2019-04-30T14:54:45.607Z,1018
2019-04-30T15:00:21.062Z,1017.8
2019-04-30T15:05:58.827Z,1017.9
2019-04-30T15:11:32.385Z,1018.3
2019-04-30T15:17:07.497Z,1018.4
2019-04-30T15:22:42.287Z,1018.6
2019-04-30T15:28:16.831Z,1018.7
2019-04-30T15:34:02.169Z,1018.6
2019-04-30T15:39:25.907Z,1018.5
2019-04-30T15:50:36.229Z,1018
2019-04-30T15:56:11.164Z,1017.8
2019-04-30T16:01:46.440Z,1017.7
2019-04-30T16:07:21.717Z,1017.6
2019-04-30T16:12:58.863Z,1017.5
2019-04-30T16:18:32.706Z,1017.4
2019-04-30T16:24:08.718Z,1017.5
2019-04-30T16:29:44.254Z,1017.6
2019-04-30T16:35:19.877Z,1017.6
2019-04-30T16:40:55.456Z,1017.7
2019-04-30T17:08:56.761Z,1017.8
2019-04-30T17:14:32.328Z,1018
2019-04-30T17:31:20.650Z,1018.1
2019-04-30T17:36:55.658Z,1018.2
2019-04-30T17:42:30.336Z,1018.3
2019-04-30T17:48:05.622Z,1018.4
2019-04-30T17:53:40.902Z,1018.4
2019-04-30T17:59:15.700Z,1018.6
2019-04-30T18:10:24.876Z,1018.9
2019-04-30T18:16:00.409Z,1019
2019-04-30T18:21:33.479Z,1019.2
2019-04-30T18:27:07.552Z,1019.4
2019-04-30T18:32:41.389Z,1019.5
2019-04-30T18:38:17.565Z,1019.6
2019-04-30T18:43:49.021Z,1019.7
2019-04-30T18:49:22.742Z,1020
2019-04-30T18:54:56.430Z,1019.8
2019-04-30T19:00:30.046Z,1020
2019-04-30T19:17:11.104Z,1020
2019-04-30T19:22:43.794Z,1020.1
2019-04-30T19:33:50.296Z,1020.2
2019-04-30T19:39:23.017Z,1020.2
2019-04-30T19:45:00.715Z,1020.3
2019-04-30T19:50:28.393Z,1020.5
2019-04-30T19:56:00.926Z,1020.5
2019-04-30T20:01:33.495Z,1020.5
2019-04-30T20:07:06.039Z,1020.4
2019-04-30T20:12:38.891Z,1020.5
2019-04-30T20:18:11.224Z,1020.4
